sensor_id;sensor_type;location;lat;lon;timestamp;temperature;humidity
15777;DHT22;7989;51.198;6.676;2024-03-08T00:00:44;4.60;99.90
15777;DHT22;7989;51.198;6.676;2024-03-08T00:03:11;4.60;99.90
15777;DHT22;7989;51.198;6.676;2024-03-08T00:05:38;4.60;99.90
15777;DHT22;7989;51.198;6.676;2024-03-08T00:08:06;4.60;99.90
15777;DHT22;7989;51.198;6.676;2024-03-08T00:10:36;4.50;99.90
15777;DHT22;7989;51.198;6.676;2024-03-08T00:13:04;4.50;99.90
15777;DHT22;7989;51.198;6.676;2024-03-08T00:15:32;4.50;99.90
15777;DHT22;7989;51.198;6.676;2024-03-08T00:17:58;4.50;99.90
15777;DHT22;7989;51.198;6.676;2024-03-08T00:20:25;4.50;99.90
15777;DHT22;7989;51.198;6.676;2024-03-08T00:22:52;4.40;99.90
15777;DHT22;7989;51.198;6.676;2024-03-08T00:25:19;4.40;99.90
15777;DHT22;7989;51.198;6.676;2024-03-08T00:27:47;4.40;99.90
15777;DHT22;7989;51.198;6.676;2024-03-08T00:30:15;4.40;99.90
15777;DHT22;7989;51.198;6.676;2024-03-08T00:32:41;4.40;99.90
15777;DHT22;7989;51.198;6.676;2024-03-08T00:35:08;4.30;99.90
15777;DHT22;7989;51.198;6.676;2024-03-08T00:37:36;4.30;99.90
15777;DHT22;7989;51.198;6.676;2024-03-08T00:40:04;4.30;99.90
15777;DHT22;7989;51.198;6.676;2024-03-08T00:42:35;4.30;99.90
15777;DHT22;7989;51.198;6.676;2024-03-08T00:45:05;4.30;99.90
15777;DHT22;7989;51.198;6.676;2024-03-08T00:47:33;4.20;99.90
15777;DHT22;7989;51.198;6.676;2024-03-08T00:49:59;4.20;99.90
15777;DHT22;7989;51.198;6.676;2024-03-08T00:52:29;4.20;99.90
15777;DHT22;7989;51.198;6.676;2024-03-08T00:54:56;4.20;99.90
15777;DHT22;7989;51.198;6.676;2024-03-08T00:57:23;4.20;99.90
15777;DHT22;7989;51.198;6.676;2024-03-08T00:59:49;4.20;99.90
15777;DHT22;7989;51.198;6.676;2024-03-08T01:02:17;4.10;99.90
15777;DHT22;7989;51.198;6.676;2024-03-08T01:04:44;4.10;99.90
15777;DHT22;7989;51.198;6.676;2024-03-08T01:07:12;4.10;99.90
15777;DHT22;7989;51.198;6.676;2024-03-08T01:09:39;4.10;99.90
15777;DHT22;7989;51.198;6.676;2024-03-08T01:12:06;4.10;99.90
15777;DHT22;7989;51.198;6.676;2024-03-08T01:14:33;4.10;99.90
15777;DHT22;7989;51.198;6.676;2024-03-08T01:17:00;4.10;99.90
15777;DHT22;7989;51.198;6.676;2024-03-08T01:19:28;4.10;99.90
15777;DHT22;7989;51.198;6.676;2024-03-08T01:21:57;4.10;99.90
15777;DHT22;7989;51.198;6.676;2024-03-08T01:24:24;4.00;99.90
15777;DHT22;7989;51.198;6.676;2024-03-08T01:26:51;4.00;99.90
15777;DHT22;7989;51.198;6.676;2024-03-08T01:29:18;4.00;99.90
15777;DHT22;7989;51.198;6.676;2024-03-08T01:31:45;4.00;99.90
15777;DHT22;7989;51.198;6.676;2024-03-08T01:34:12;4.00;99.90
15777;DHT22;7989;51.198;6.676;2024-03-08T01:36:40;3.90;99.90
15777;DHT22;7989;51.198;6.676;2024-03-08T01:39:06;3.90;99.90
15777;DHT22;7989;51.198;6.676;2024-03-08T01:41:33;3.90;99.90
15777;DHT22;7989;51.198;6.676;2024-03-08T01:44:01;3.90;99.90
15777;DHT22;7989;51.198;6.676;2024-03-08T01:46:28;3.80;99.90
15777;DHT22;7989;51.198;6.676;2024-03-08T01:48:56;3.80;99.90
15777;DHT22;7989;51.198;6.676;2024-03-08T01:51:23;3.80;99.90
15777;DHT22;7989;51.198;6.676;2024-03-08T01:53:56;3.80;99.90
15777;DHT22;7989;51.198;6.676;2024-03-08T01:56:24;3.70;99.90
15777;DHT22;7989;51.198;6.676;2024-03-08T01:58:54;3.70;99.90
15777;DHT22;7989;51.198;6.676;2024-03-08T02:01:21;3.70;99.90
15777;DHT22;7989;51.198;6.676;2024-03-08T02:03:49;3.70;99.90
15777;DHT22;7989;51.198;6.676;2024-03-08T02:06:16;3.70;99.90
15777;DHT22;7989;51.198;6.676;2024-03-08T02:08:43;3.70;99.90
15777;DHT22;7989;51.198;6.676;2024-03-08T02:11:12;3.70;99.90
15777;DHT22;7989;51.198;6.676;2024-03-08T02:13:39;3.70;99.90
15777;DHT22;7989;51.198;6.676;2024-03-08T02:16:06;3.70;99.90
15777;DHT22;7989;51.198;6.676;2024-03-08T02:18:34;3.70;99.90
15777;DHT22;7989;51.198;6.676;2024-03-08T02:21:03;3.70;99.90
15777;DHT22;7989;51.198;6.676;2024-03-08T02:23:30;3.70;99.90
15777;DHT22;7989;51.198;6.676;2024-03-08T02:25:58;3.70;99.90
15777;DHT22;7989;51.198;6.676;2024-03-08T02:28:25;3.60;99.90
15777;DHT22;7989;51.198;6.676;2024-03-08T02:30:52;3.60;99.90
15777;DHT22;7989;51.198;6.676;2024-03-08T02:33:20;3.60;99.90
15777;DHT22;7989;51.198;6.676;2024-03-08T02:35:47;3.70;99.90
15777;DHT22;7989;51.198;6.676;2024-03-08T02:38:17;3.60;99.90
15777;DHT22;7989;51.198;6.676;2024-03-08T02:40:44;3.60;99.90
15777;DHT22;7989;51.198;6.676;2024-03-08T02:43:12;3.70;99.90
15777;DHT22;7989;51.198;6.676;2024-03-08T02:45:40;3.60;99.90
15777;DHT22;7989;51.198;6.676;2024-03-08T02:48:08;3.60;99.90
15777;DHT22;7989;51.198;6.676;2024-03-08T02:50:35;3.60;99.90
15777;DHT22;7989;51.198;6.676;2024-03-08T02:53:02;3.60;99.90
15777;DHT22;7989;51.198;6.676;2024-03-08T02:55:30;3.50;99.90
15777;DHT22;7989;51.198;6.676;2024-03-08T02:57:56;3.60;99.90
15777;DHT22;7989;51.198;6.676;2024-03-08T03:00:24;3.40;99.90
15777;DHT22;7989;51.198;6.676;2024-03-08T03:02:52;3.40;99.90
15777;DHT22;7989;51.198;6.676;2024-03-08T03:05:19;3.30;99.90
15777;DHT22;7989;51.198;6.676;2024-03-08T03:07:46;3.30;99.90
15777;DHT22;7989;51.198;6.676;2024-03-08T03:10:14;3.30;99.90
15777;DHT22;7989;51.198;6.676;2024-03-08T03:12:44;3.40;99.90
15777;DHT22;7989;51.198;6.676;2024-03-08T03:15:11;3.40;99.90
15777;DHT22;7989;51.198;6.676;2024-03-08T03:17:38;3.40;99.90
15777;DHT22;7989;51.198;6.676;2024-03-08T03:20:06;3.40;99.90
15777;DHT22;7989;51.198;6.676;2024-03-08T03:22:38;3.40;99.90
15777;DHT22;7989;51.198;6.676;2024-03-08T03:25:07;3.40;99.90
15777;DHT22;7989;51.198;6.676;2024-03-08T03:27:35;3.40;99.90
15777;DHT22;7989;51.198;6.676;2024-03-08T03:30:05;3.30;99.90
15777;DHT22;7989;51.198;6.676;2024-03-08T03:32:46;3.30;99.90
15777;DHT22;7989;51.198;6.676;2024-03-08T03:35:13;3.30;99.90
15777;DHT22;7989;51.198;6.676;2024-03-08T03:37:41;3.30;99.90
15777;DHT22;7989;51.198;6.676;2024-03-08T03:40:11;3.30;99.90
15777;DHT22;7989;51.198;6.676;2024-03-08T03:42:38;3.20;99.90
15777;DHT22;7989;51.198;6.676;2024-03-08T03:45:07;3.20;99.90
15777;DHT22;7989;51.198;6.676;2024-03-08T03:47:35;3.20;99.90
15777;DHT22;7989;51.198;6.676;2024-03-08T03:50:04;3.30;99.90
15777;DHT22;7989;51.198;6.676;2024-03-08T03:52:31;3.20;99.90
15777;DHT22;7989;51.198;6.676;2024-03-08T03:55:01;3.20;99.90
15777;DHT22;7989;51.198;6.676;2024-03-08T03:57:29;3.10;99.90
15777;DHT22;7989;51.198;6.676;2024-03-08T03:59:56;3.10;99.90
15777;DHT22;7989;51.198;6.676;2024-03-08T04:02:25;3.10;99.90
15777;DHT22;7989;51.198;6.676;2024-03-08T04:04:52;3.00;99.90
15777;DHT22;7989;51.198;6.676;2024-03-08T04:07:20;3.10;99.90
15777;DHT22;7989;51.198;6.676;2024-03-08T04:09:47;3.10;99.90
15777;DHT22;7989;51.198;6.676;2024-03-08T04:12:14;3.10;99.90
15777;DHT22;7989;51.198;6.676;2024-03-08T04:14:42;3.00;99.90
15777;DHT22;7989;51.198;6.676;2024-03-08T04:17:09;2.90;99.90
15777;DHT22;7989;51.198;6.676;2024-03-08T04:19:38;3.00;99.90
15777;DHT22;7989;51.198;6.676;2024-03-08T04:22:05;3.00;99.90
15777;DHT22;7989;51.198;6.676;2024-03-08T04:24:33;2.90;99.90
15777;DHT22;7989;51.198;6.676;2024-03-08T04:27:00;2.90;99.90
15777;DHT22;7989;51.198;6.676;2024-03-08T04:29:27;3.00;99.90
15777;DHT22;7989;51.198;6.676;2024-03-08T04:31:54;3.00;99.90
15777;DHT22;7989;51.198;6.676;2024-03-08T04:34:21;3.10;99.90
15777;DHT22;7989;51.198;6.676;2024-03-08T04:36:49;3.10;99.90
15777;DHT22;7989;51.198;6.676;2024-03-08T04:39:16;3.00;99.90
15777;DHT22;7989;51.198;6.676;2024-03-08T04:41:44;3.00;99.90
15777;DHT22;7989;51.198;6.676;2024-03-08T04:44:11;3.00;99.90
15777;DHT22;7989;51.198;6.676;2024-03-08T04:46:39;3.10;99.90
15777;DHT22;7989;51.198;6.676;2024-03-08T04:49:06;3.00;99.90
15777;DHT22;7989;51.198;6.676;2024-03-08T04:51:33;3.10;99.90
15777;DHT22;7989;51.198;6.676;2024-03-08T04:54:01;3.00;99.90
15777;DHT22;7989;51.198;6.676;2024-03-08T04:56:30;3.10;99.90
15777;DHT22;7989;51.198;6.676;2024-03-08T04:58:57;3.00;99.90
15777;DHT22;7989;51.198;6.676;2024-03-08T05:01:24;3.00;99.90
15777;DHT22;7989;51.198;6.676;2024-03-08T05:03:50;3.10;99.90
15777;DHT22;7989;51.198;6.676;2024-03-08T05:06:20;3.00;99.90
15777;DHT22;7989;51.198;6.676;2024-03-08T05:08:49;3.10;99.90
15777;DHT22;7989;51.198;6.676;2024-03-08T05:11:17;3.00;99.90
15777;DHT22;7989;51.198;6.676;2024-03-08T05:13:44;3.00;99.90
15777;DHT22;7989;51.198;6.676;2024-03-08T05:16:11;3.00;99.90
15777;DHT22;7989;51.198;6.676;2024-03-08T05:18:41;3.00;99.90
15777;DHT22;7989;51.198;6.676;2024-03-08T05:21:07;3.00;99.90
15777;DHT22;7989;51.198;6.676;2024-03-08T05:23:34;3.00;99.90
15777;DHT22;7989;51.198;6.676;2024-03-08T05:26:01;3.10;99.90
15777;DHT22;7989;51.198;6.676;2024-03-08T05:28:29;3.10;99.90
15777;DHT22;7989;51.198;6.676;2024-03-08T05:30:56;3.10;99.90
15777;DHT22;7989;51.198;6.676;2024-03-08T05:33:23;3.10;99.90
15777;DHT22;7989;51.198;6.676;2024-03-08T05:35:50;3.00;99.90
15777;DHT22;7989;51.198;6.676;2024-03-08T05:38:17;3.00;99.90
15777;DHT22;7989;51.198;6.676;2024-03-08T05:40:45;3.00;99.90
15777;DHT22;7989;51.198;6.676;2024-03-08T05:43:12;3.00;99.90
15777;DHT22;7989;51.198;6.676;2024-03-08T05:45:40;3.00;99.90
15777;DHT22;7989;51.198;6.676;2024-03-08T05:48:07;3.00;99.90
15777;DHT22;7989;51.198;6.676;2024-03-08T05:50:34;2.90;99.90
15777;DHT22;7989;51.198;6.676;2024-03-08T05:53:01;2.90;99.90
15777;DHT22;7989;51.198;6.676;2024-03-08T05:55:28;2.90;99.90
15777;DHT22;7989;51.198;6.676;2024-03-08T05:57:55;2.90;99.90
15777;DHT22;7989;51.198;6.676;2024-03-08T06:00:22;2.90;99.90
15777;DHT22;7989;51.198;6.676;2024-03-08T06:02:51;2.90;99.90
15777;DHT22;7989;51.198;6.676;2024-03-08T06:05:17;2.90;99.90
15777;DHT22;7989;51.198;6.676;2024-03-08T06:07:44;2.90;99.90
15777;DHT22;7989;51.198;6.676;2024-03-08T06:10:12;2.90;99.90
15777;DHT22;7989;51.198;6.676;2024-03-08T06:12:39;2.90;99.90
15777;DHT22;7989;51.198;6.676;2024-03-08T06:15:07;2.90;99.90
15777;DHT22;7989;51.198;6.676;2024-03-08T06:17:35;2.90;99.90
15777;DHT22;7989;51.198;6.676;2024-03-08T06:20:03;2.90;99.90
15777;DHT22;7989;51.198;6.676;2024-03-08T06:22:36;2.90;99.90
15777;DHT22;7989;51.198;6.676;2024-03-08T06:25:03;3.00;99.90
15777;DHT22;7989;51.198;6.676;2024-03-08T06:27:30;3.10;99.90
15777;DHT22;7989;51.198;6.676;2024-03-08T06:29:59;3.10;99.90
15777;DHT22;7989;51.198;6.676;2024-03-08T06:32:26;3.10;99.90
15777;DHT22;7989;51.198;6.676;2024-03-08T06:34:52;3.20;99.90
15777;DHT22;7989;51.198;6.676;2024-03-08T06:37:21;3.30;99.90
15777;DHT22;7989;51.198;6.676;2024-03-08T06:39:49;3.40;99.90
15777;DHT22;7989;51.198;6.676;2024-03-08T06:42:16;3.40;99.90
15777;DHT22;7989;51.198;6.676;2024-03-08T06:44:43;3.40;99.90
15777;DHT22;7989;51.198;6.676;2024-03-08T06:47:14;3.50;99.90
15777;DHT22;7989;51.198;6.676;2024-03-08T06:49:41;3.60;99.90
15777;DHT22;7989;51.198;6.676;2024-03-08T06:52:08;3.70;99.90
15777;DHT22;7989;51.198;6.676;2024-03-08T06:54:37;3.80;99.90
15777;DHT22;7989;51.198;6.676;2024-03-08T06:57:04;3.80;99.90
15777;DHT22;7989;51.198;6.676;2024-03-08T06:59:31;3.90;99.90
15777;DHT22;7989;51.198;6.676;2024-03-08T07:01:58;3.90;99.90
15777;DHT22;7989;51.198;6.676;2024-03-08T07:04:26;4.00;99.90
15777;DHT22;7989;51.198;6.676;2024-03-08T07:06:55;4.10;99.90
15777;DHT22;7989;51.198;6.676;2024-03-08T07:09:23;4.20;99.90
15777;DHT22;7989;51.198;6.676;2024-03-08T07:11:51;4.30;99.90
15777;DHT22;7989;51.198;6.676;2024-03-08T07:14:21;4.30;99.90
15777;DHT22;7989;51.198;6.676;2024-03-08T07:16:48;4.50;99.90
15777;DHT22;7989;51.198;6.676;2024-03-08T07:19:15;4.50;99.90
15777;DHT22;7989;51.198;6.676;2024-03-08T07:21:42;4.60;99.90
15777;DHT22;7989;51.198;6.676;2024-03-08T07:24:09;4.70;99.90
15777;DHT22;7989;51.198;6.676;2024-03-08T07:27:00;4.70;99.90
15777;DHT22;7989;51.198;6.676;2024-03-08T07:29:27;4.80;99.90
15777;DHT22;7989;51.198;6.676;2024-03-08T07:31:54;4.90;99.90
15777;DHT22;7989;51.198;6.676;2024-03-08T07:34:33;5.00;99.90
15777;DHT22;7989;51.198;6.676;2024-03-08T07:37:00;5.10;99.90
15777;DHT22;7989;51.198;6.676;2024-03-08T07:39:27;5.20;99.90
15777;DHT22;7989;51.198;6.676;2024-03-08T07:41:54;5.30;99.90
15777;DHT22;7989;51.198;6.676;2024-03-08T07:44:22;5.50;99.90
15777;DHT22;7989;51.198;6.676;2024-03-08T07:46:49;5.60;99.90
15777;DHT22;7989;51.198;6.676;2024-03-08T07:49:16;5.70;99.90
15777;DHT22;7989;51.198;6.676;2024-03-08T07:51:43;5.90;99.90
15777;DHT22;7989;51.198;6.676;2024-03-08T07:54:10;7.80;99.90
15777;DHT22;7989;51.198;6.676;2024-03-08T07:56:37;10.10;99.90
15777;DHT22;7989;51.198;6.676;2024-03-08T07:59:04;8.40;99.90
15777;DHT22;7989;51.198;6.676;2024-03-08T08:01:32;12.00;99.90
15777;DHT22;7989;51.198;6.676;2024-03-08T08:03:59;14.40;99.90
15777;DHT22;7989;51.198;6.676;2024-03-08T08:06:26;13.80;99.40
15777;DHT22;7989;51.198;6.676;2024-03-08T08:08:53;10.90;99.90
15777;DHT22;7989;51.198;6.676;2024-03-08T08:11:20;9.80;99.90
15777;DHT22;7989;51.198;6.676;2024-03-08T08:13:47;11.70;99.90
15777;DHT22;7989;51.198;6.676;2024-03-08T08:16:14;15.50;99.90
15777;DHT22;7989;51.198;6.676;2024-03-08T08:18:42;17.40;97.10
15777;DHT22;7989;51.198;6.676;2024-03-08T08:21:11;18.30;94.90
15777;DHT22;7989;51.198;6.676;2024-03-08T08:23:38;17.40;93.40
15777;DHT22;7989;51.198;6.676;2024-03-08T08:26:05;17.20;93.70
15777;DHT22;7989;51.198;6.676;2024-03-08T08:28:33;17.30;93.40
15777;DHT22;7989;51.198;6.676;2024-03-08T08:31:00;14.80;93.60
15777;DHT22;7989;51.198;6.676;2024-03-08T08:33:27;14.50;95.70
15777;DHT22;7989;51.198;6.676;2024-03-08T08:35:55;17.20;94.30
15777;DHT22;7989;51.198;6.676;2024-03-08T08:38:22;18.40;93.10
15777;DHT22;7989;51.198;6.676;2024-03-08T08:40:50;18.40;90.10
15777;DHT22;7989;51.198;6.676;2024-03-08T08:43:18;18.10;91.10
15777;DHT22;7989;51.198;6.676;2024-03-08T08:45:46;19.20;90.60
15777;DHT22;7989;51.198;6.676;2024-03-08T08:48:15;20.70;87.30
15777;DHT22;7989;51.198;6.676;2024-03-08T08:50:42;21.90;84.40
15777;DHT22;7989;51.198;6.676;2024-03-08T08:53:11;22.00;81.10
15777;DHT22;7989;51.198;6.676;2024-03-08T08:55:40;20.90;80.70
15777;DHT22;7989;51.198;6.676;2024-03-08T08:58:07;21.70;79.10
15777;DHT22;7989;51.198;6.676;2024-03-08T09:00:33;21.80;79.00
15777;DHT22;7989;51.198;6.676;2024-03-08T09:03:00;21.80;78.30
15777;DHT22;7989;51.198;6.676;2024-03-08T09:05:27;21.40;77.50
15777;DHT22;7989;51.198;6.676;2024-03-08T09:07:54;21.60;79.00
15777;DHT22;7989;51.198;6.676;2024-03-08T09:10:22;21.20;77.30
15777;DHT22;7989;51.198;6.676;2024-03-08T09:12:49;20.40;78.90
15777;DHT22;7989;51.198;6.676;2024-03-08T09:15:16;21.10;77.30
15777;DHT22;7989;51.198;6.676;2024-03-08T09:17:46;21.70;74.20
15777;DHT22;7989;51.198;6.676;2024-03-08T09:20:14;21.70;73.60
15777;DHT22;7989;51.198;6.676;2024-03-08T09:22:43;22.30;73.00
15777;DHT22;7989;51.198;6.676;2024-03-08T09:25:10;23.30;71.20
15777;DHT22;7989;51.198;6.676;2024-03-08T09:27:38;24.60;70.40
15777;DHT22;7989;51.198;6.676;2024-03-08T09:30:07;24.50;67.00
15777;DHT22;7989;51.198;6.676;2024-03-08T09:32:34;24.20;67.20
15777;DHT22;7989;51.198;6.676;2024-03-08T09:35:02;24.40;65.60
15777;DHT22;7989;51.198;6.676;2024-03-08T09:37:29;24.00;66.20
15777;DHT22;7989;51.198;6.676;2024-03-08T09:39:56;22.90;66.10
15777;DHT22;7989;51.198;6.676;2024-03-08T09:42:24;22.70;68.80
15777;DHT22;7989;51.198;6.676;2024-03-08T09:44:52;22.20;67.90
15777;DHT22;7989;51.198;6.676;2024-03-08T09:47:22;21.10;68.50
15777;DHT22;7989;51.198;6.676;2024-03-08T09:49:52;21.40;68.70
15777;DHT22;7989;51.198;6.676;2024-03-08T09:52:19;21.60;69.80
15777;DHT22;7989;51.198;6.676;2024-03-08T09:54:46;20.50;68.50
15777;DHT22;7989;51.198;6.676;2024-03-08T09:57:13;19.80;71.40
15777;DHT22;7989;51.198;6.676;2024-03-08T09:59:40;21.70;71.00
15777;DHT22;7989;51.198;6.676;2024-03-08T10:02:15;21.90;67.00
15777;DHT22;7989;51.198;6.676;2024-03-08T10:04:43;22.40;69.00
15777;DHT22;7989;51.198;6.676;2024-03-08T10:07:12;23.60;67.20
15777;DHT22;7989;51.198;6.676;2024-03-08T10:09:38;23.40;65.10
15777;DHT22;7989;51.198;6.676;2024-03-08T10:12:07;22.40;66.10
15777;DHT22;7989;51.198;6.676;2024-03-08T10:14:39;21.10;66.90
15777;DHT22;7989;51.198;6.676;2024-03-08T10:17:07;20.30;69.70
15777;DHT22;7989;51.198;6.676;2024-03-08T10:19:35;21.00;67.00
15777;DHT22;7989;51.198;6.676;2024-03-08T10:22:02;17.40;71.10
15777;DHT22;7989;51.198;6.676;2024-03-08T10:24:30;15.10;77.60
15777;DHT22;7989;51.198;6.676;2024-03-08T10:26:59;16.00;79.60
15777;DHT22;7989;51.198;6.676;2024-03-08T10:29:27;18.30;77.20
15777;DHT22;7989;51.198;6.676;2024-03-08T10:31:54;19.40;72.10
15777;DHT22;7989;51.198;6.676;2024-03-08T10:34:24;20.40;71.80
15777;DHT22;7989;51.198;6.676;2024-03-08T10:36:53;19.10;71.80
15777;DHT22;7989;51.198;6.676;2024-03-08T10:39:24;18.10;72.10
15777;DHT22;7989;51.198;6.676;2024-03-08T10:41:56;17.80;74.40
15777;DHT22;7989;51.198;6.676;2024-03-08T10:44:36;19.00;72.90
15777;DHT22;7989;51.198;6.676;2024-03-08T10:47:15;18.30;71.80
15777;DHT22;7989;51.198;6.676;2024-03-08T10:49:51;16.00;75.20
15777;DHT22;7989;51.198;6.676;2024-03-08T10:52:20;14.90;79.30
15777;DHT22;7989;51.198;6.676;2024-03-08T10:54:48;15.10;77.60
15777;DHT22;7989;51.198;6.676;2024-03-08T10:57:18;14.30;79.50
15777;DHT22;7989;51.198;6.676;2024-03-08T10:59:47;13.80;81.80
15777;DHT22;7989;51.198;6.676;2024-03-08T11:02:16;14.40;82.30
15777;DHT22;7989;51.198;6.676;2024-03-08T11:04:46;15.50;78.40
15777;DHT22;7989;51.198;6.676;2024-03-08T11:07:14;16.30;77.30
15777;DHT22;7989;51.198;6.676;2024-03-08T11:09:47;16.00;76.60
15777;DHT22;7989;51.198;6.676;2024-03-08T11:12:25;15.80;75.50
15777;DHT22;7989;51.198;6.676;2024-03-08T11:14:55;15.00;77.20
15777;DHT22;7989;51.198;6.676;2024-03-08T11:17:45;15.20;78.70
15777;DHT22;7989;51.198;6.676;2024-03-08T11:20:12;15.90;75.70
15777;DHT22;7989;51.198;6.676;2024-03-08T11:22:42;16.20;76.90
15777;DHT22;7989;51.198;6.676;2024-03-08T11:25:34;16.10;75.20
15777;DHT22;7989;51.198;6.676;2024-03-08T11:28:11;15.80;75.00
15777;DHT22;7989;51.198;6.676;2024-03-08T11:30:43;15.80;76.50
15777;DHT22;7989;51.198;6.676;2024-03-08T11:33:12;15.80;75.80
15777;DHT22;7989;51.198;6.676;2024-03-08T11:35:39;15.50;76.20
15777;DHT22;7989;51.198;6.676;2024-03-08T11:38:08;16.00;77.00
15777;DHT22;7989;51.198;6.676;2024-03-08T11:40:36;16.50;74.30
15777;DHT22;7989;51.198;6.676;2024-03-08T11:43:03;15.90;74.40
15777;DHT22;7989;51.198;6.676;2024-03-08T11:45:33;15.70;75.50
15777;DHT22;7989;51.198;6.676;2024-03-08T11:48:02;16.30;75.00
15777;DHT22;7989;51.198;6.676;2024-03-08T11:50:30;16.90;74.00
15777;DHT22;7989;51.198;6.676;2024-03-08T11:53:00;17.40;72.80
15777;DHT22;7989;51.198;6.676;2024-03-08T11:55:28;17.70;72.20
15777;DHT22;7989;51.198;6.676;2024-03-08T11:58:01;17.70;71.80
15777;DHT22;7989;51.198;6.676;2024-03-08T12:00:28;18.40;70.70
15777;DHT22;7989;51.198;6.676;2024-03-08T12:03:08;18.20;72.20
15777;DHT22;7989;51.198;6.676;2024-03-08T12:05:36;18.00;70.60
15777;DHT22;7989;51.198;6.676;2024-03-08T12:08:04;17.40;72.00
15777;DHT22;7989;51.198;6.676;2024-03-08T12:10:32;17.20;72.80
15777;DHT22;7989;51.198;6.676;2024-03-08T12:13:01;18.10;71.60
15777;DHT22;7989;51.198;6.676;2024-03-08T12:15:29;19.40;69.00
15777;DHT22;7989;51.198;6.676;2024-03-08T12:17:59;19.80;67.30
15777;DHT22;7989;51.198;6.676;2024-03-08T12:20:27;20.10;66.00
15777;DHT22;7989;51.198;6.676;2024-03-08T12:22:56;19.30;68.10
15777;DHT22;7989;51.198;6.676;2024-03-08T12:25:27;19.00;67.70
15777;DHT22;7989;51.198;6.676;2024-03-08T12:27:57;18.30;68.90
15777;DHT22;7989;51.198;6.676;2024-03-08T12:30:26;18.20;69.80
15777;DHT22;7989;51.198;6.676;2024-03-08T12:32:55;19.00;69.20
15777;DHT22;7989;51.198;6.676;2024-03-08T12:35:24;19.90;67.20
15777;DHT22;7989;51.198;6.676;2024-03-08T12:37:53;20.10;65.50
15777;DHT22;7989;51.198;6.676;2024-03-08T12:40:26;19.30;66.10
15777;DHT22;7989;51.198;6.676;2024-03-08T12:42:54;18.90;68.00
15777;DHT22;7989;51.198;6.676;2024-03-08T12:45:21;19.60;66.80
15777;DHT22;7989;51.198;6.676;2024-03-08T12:47:51;19.90;66.40
15777;DHT22;7989;51.198;6.676;2024-03-08T12:50:18;19.70;65.30
15777;DHT22;7989;51.198;6.676;2024-03-08T12:52:46;20.00;65.90
15777;DHT22;7989;51.198;6.676;2024-03-08T12:55:14;20.20;66.10
15777;DHT22;7989;51.198;6.676;2024-03-08T12:57:42;20.50;64.70
15777;DHT22;7989;51.198;6.676;2024-03-08T13:00:10;21.00;63.90
15777;DHT22;7989;51.198;6.676;2024-03-08T13:02:39;21.50;63.40
15777;DHT22;7989;51.198;6.676;2024-03-08T13:05:08;22.50;61.30
15777;DHT22;7989;51.198;6.676;2024-03-08T13:07:36;22.00;62.30
15777;DHT22;7989;51.198;6.676;2024-03-08T13:10:04;21.80;61.00
15777;DHT22;7989;51.198;6.676;2024-03-08T13:12:32;21.60;62.40
15777;DHT22;7989;51.198;6.676;2024-03-08T13:15:00;20.80;62.60
15777;DHT22;7989;51.198;6.676;2024-03-08T13:17:27;20.90;63.60
15777;DHT22;7989;51.198;6.676;2024-03-08T13:19:54;20.20;63.50
15777;DHT22;7989;51.198;6.676;2024-03-08T13:22:24;19.80;64.40
15777;DHT22;7989;51.198;6.676;2024-03-08T13:24:51;19.20;65.50
15777;DHT22;7989;51.198;6.676;2024-03-08T13:27:18;19.30;65.30
15777;DHT22;7989;51.198;6.676;2024-03-08T13:29:46;19.80;64.60
15777;DHT22;7989;51.198;6.676;2024-03-08T13:32:14;19.90;64.10
15777;DHT22;7989;51.198;6.676;2024-03-08T13:34:42;20.30;64.00
15777;DHT22;7989;51.198;6.676;2024-03-08T13:37:10;20.90;62.70
15777;DHT22;7989;51.198;6.676;2024-03-08T13:39:39;22.40;62.30
15777;DHT22;7989;51.198;6.676;2024-03-08T13:42:10;22.00;60.20
15777;DHT22;7989;51.198;6.676;2024-03-08T13:44:39;20.00;62.60
15777;DHT22;7989;51.198;6.676;2024-03-08T13:47:06;20.60;62.80
15777;DHT22;7989;51.198;6.676;2024-03-08T13:49:33;21.60;60.20
15777;DHT22;7989;51.198;6.676;2024-03-08T13:52:02;21.80;60.00
15777;DHT22;7989;51.198;6.676;2024-03-08T13:54:29;21.50;60.00
15777;DHT22;7989;51.198;6.676;2024-03-08T13:56:58;20.80;61.00
15777;DHT22;7989;51.198;6.676;2024-03-08T13:59:26;22.30;60.60
15777;DHT22;7989;51.198;6.676;2024-03-08T14:01:55;22.10;59.00
15777;DHT22;7989;51.198;6.676;2024-03-08T14:04:23;22.50;58.80
15777;DHT22;7989;51.198;6.676;2024-03-08T14:06:51;21.00;59.80
15777;DHT22;7989;51.198;6.676;2024-03-08T14:09:22;20.10;61.80
15777;DHT22;7989;51.198;6.676;2024-03-08T14:11:50;19.90;61.30
15777;DHT22;7989;51.198;6.676;2024-03-08T14:14:20;20.70;61.50
15777;DHT22;7989;51.198;6.676;2024-03-08T14:16:48;22.40;58.80
15777;DHT22;7989;51.198;6.676;2024-03-08T14:19:18;23.00;57.80
15777;DHT22;7989;51.198;6.676;2024-03-08T14:21:45;23.80;57.60
15777;DHT22;7989;51.198;6.676;2024-03-08T14:24:14;23.50;56.30
15777;DHT22;7989;51.198;6.676;2024-03-08T14:26:41;24.20;56.30
15777;DHT22;7989;51.198;6.676;2024-03-08T14:29:08;24.50;55.20
15777;DHT22;7989;51.198;6.676;2024-03-08T14:31:37;22.90;56.00
15777;DHT22;7989;51.198;6.676;2024-03-08T14:34:03;22.20;57.10
15777;DHT22;7989;51.198;6.676;2024-03-08T14:36:30;23.00;57.20
15777;DHT22;7989;51.198;6.676;2024-03-08T14:38:57;21.10;58.60
15777;DHT22;7989;51.198;6.676;2024-03-08T14:41:24;20.80;59.70
15777;DHT22;7989;51.198;6.676;2024-03-08T14:43:52;20.80;59.70
15777;DHT22;7989;51.198;6.676;2024-03-08T14:46:19;21.10;58.60
15777;DHT22;7989;51.198;6.676;2024-03-08T14:48:50;21.80;57.90
15777;DHT22;7989;51.198;6.676;2024-03-08T14:51:17;20.60;59.00
15777;DHT22;7989;51.198;6.676;2024-03-08T14:53:47;20.10;59.70
15777;DHT22;7989;51.198;6.676;2024-03-08T14:56:15;20.40;59.60
15777;DHT22;7989;51.198;6.676;2024-03-08T14:58:43;19.50;60.60
15777;DHT22;7989;51.198;6.676;2024-03-08T15:01:10;19.50;61.70
15777;DHT22;7989;51.198;6.676;2024-03-08T15:03:39;19.30;61.60
15777;DHT22;7989;51.198;6.676;2024-03-08T15:06:07;19.60;61.40
15777;DHT22;7989;51.198;6.676;2024-03-08T15:08:37;19.80;60.30
15777;DHT22;7989;51.198;6.676;2024-03-08T15:11:04;19.00;61.80
15777;DHT22;7989;51.198;6.676;2024-03-08T15:13:31;18.80;62.70
15777;DHT22;7989;51.198;6.676;2024-03-08T15:16:05;17.80;64.50
15777;DHT22;7989;51.198;6.676;2024-03-08T15:18:33;17.30;66.30
15777;DHT22;7989;51.198;6.676;2024-03-08T15:21:02;17.70;65.70
15777;DHT22;7989;51.198;6.676;2024-03-08T15:23:34;18.20;65.00
15777;DHT22;7989;51.198;6.676;2024-03-08T15:26:01;18.10;65.00
15777;DHT22;7989;51.198;6.676;2024-03-08T15:28:29;18.00;65.00
15777;DHT22;7989;51.198;6.676;2024-03-08T15:31:03;17.90;66.10
15777;DHT22;7989;51.198;6.676;2024-03-08T15:33:32;18.80;65.30
15777;DHT22;7989;51.198;6.676;2024-03-08T15:35:59;19.20;63.60
15777;DHT22;7989;51.198;6.676;2024-03-08T15:38:26;18.70;64.30
15777;DHT22;7989;51.198;6.676;2024-03-08T15:40:55;18.10;65.20
15777;DHT22;7989;51.198;6.676;2024-03-08T15:43:22;17.80;66.10
15777;DHT22;7989;51.198;6.676;2024-03-08T15:45:50;17.00;67.10
15777;DHT22;7989;51.198;6.676;2024-03-08T15:48:17;16.50;68.70
15777;DHT22;7989;51.198;6.676;2024-03-08T15:50:44;15.10;71.40
15777;DHT22;7989;51.198;6.676;2024-03-08T15:53:11;13.90;74.20
15777;DHT22;7989;51.198;6.676;2024-03-08T15:55:40;13.80;76.20
15777;DHT22;7989;51.198;6.676;2024-03-08T15:58:11;13.90;76.30
15777;DHT22;7989;51.198;6.676;2024-03-08T16:00:37;14.00;77.00